首页
METAR-TAF:

METAR-TAF

机场 :

博帕尔, 印度

纬度: 23-17-15N, 经度: 77-20-15E, 海拔: 524米

当前天气观测

该预报发布于5小时和17分钟前的18:00 UTC
风速7节,风向
温度 27°C
湿度 100%
气压 1004 hPa
能見度: 6000
散云层高于2000英尺
少量云层高于3000英尺, 积雨云.
多云层高于10000英尺

METAR: VABP 221800Z 6000 10007KT SCT020 FEW030CB BKN100 27/27 Q1004 NOSIG

时间: 04:47 (23:17 UTC)

预报

该预报发布于21小时和17分钟前的02:00 UTC
预报有效从22日的 03点(UTC)到 22日的 12点(UTC)
风速8节,风向南转西南
能見度: 6000
少量云层高于2000英尺
散云层高于10000英尺
短暂存在
从 22日的 08点(UTC)到 22日的 12点(UTC)
风速10节,风向,有时为20节阵风
能見度: 3000
散云层高于2000英尺
少量云层高于3000英尺, 积雨云.
多云层高于10000英尺
雷暴, 小雨,

TAF: VABP 220200Z 2203/2212 20008KT 6000 FEW020 SCT100 TEMPO 2208/2212 35010G20KT 3000 -TSRA SCT020 FEW030CB BKN100

超过4000个机场的气象观测和天气预报(METAR&TAF报告)。

可查询的气象台以黄色和红色小点在地图上表示。

将鼠标移到小点上方,可查看气象台名称。

然后点击查看天气观测和预报。

如需切换地图:点击带黑十字的绿色按钮放大地图;点击带横线的绿色按钮缩小地图;或者点击绿色箭头查看邻近地区的地图。


METAR-TAF: